Terminal Aerodrome Forecast
Issued by NWS

Home | Current Version | Previous Version | Graphics & Text | Print | Product List | Glossary Off
Versions: 1 2 3 4 5 6 7 8 9 10 11 12 13 14 15 16 17 18 19 20 21 22 23 24 25 26 27 28 29 30 31 32 33 34 35 36 37 38 39 40 41 42

000
FTUS43 KDDC 211136
TAFGCK
TAF
KGCK 211136Z 2112/2212 15013G22KT 3SM BR OVC003
     FM211500 16019G26KT P6SM OVC010
     FM212100 16020G30KT P6SM BKN030
      TEMPO 2123/2201 3SM TSRA OVC020CB
     FM220500 15017KT P6SM OVC007=

USA.gov is the U.S. government's official web portal to all federal, state and local government web resources and services.